ディエゴガルシア島 の空港の天気 - METARとTAF

ディエゴガルシア基地 ( FJDG / NKW ) - ディエゴガルシア島
飛行場実況気象(Metar)
観測時間12/01 00:55 IOT (11/30 18:55 UTC)
風向・風速西北西 5m/s
視程9000m
天気現象弱いしゅう雨
少しの雲 雲底高度 520m
全天の4割程度の雲 雲底高度 1370m
全天を覆う雲 雲底高度 2440m
気温26.2℃
湿度94%
気圧1011.9hPa
METARFJDG 301855Z 30009KT 9000 -SHRA FEW017 SCT045 OVC080 26/25 A2989 RMK SLP119 T2 SET P0006 T02620251
過去の天気等 Google飛行場航空写真 Wunderground天気予報

過去48時間のMETAR

飛行場予報(TAF)
発表時間: 11/30 23:00 IOT (11/30 17:00 UTC)
予報対象時間: 30日23時 IOT ~ 2日5時 IOT
風向・風速不定 3m/s
視程10km以上
少しの雲 雲底高度 460m
全天の4割程度の雲 雲底高度 1520m
全天の8割程度の雲 雲底高度 2440m
30日23時 IOT ~ 1日4時 IOT に一時的に
視程8000m
天気現象弱いしゅう雨
全天の8割程度の雲 雲底高度 760m
TAF FJDG 301700Z 3017/0123 VRB06KT 9999 FEW015 SCT050 BKN080 QNH2977INS
TEMPO 3017/3022 8000 -SHRA BKN025 TX31/0110Z TN26/3020Z FOR MIL USE ONLY